RJSC/GAJ METAR and TAF weather

Enter ICAO airport designator
Station Type Date Time Source
RJSC METAR 2022/06/25 23:00 UTC NOAA

RJSC 252300Z 30003KT 260V340 9999 FEW020 SCT040 25/22 Q1012


Station Type Date Time Source
RJSC Decoded METAR 2022/06/25 23:00 UTC NOAA

Yamagata Airport, Japan (RJSC) 38-25N 140-22E 108M
Jun 25, 2022 - 07:00 PM EDT / 2022.06.25 2300 UTC
Wind: from the WNW (300 degrees) at 3 MPH (3 KT) (direction variable):0
Visibility: greater than 7 mile(s):0
Sky conditions: partly cloudy
Temperature: 77 F (25 C)
Dew Point: 71 F (22 C)
Relative Humidity: 83%
Pressure (altimeter): 29.88 in. Hg (1012 hPa)
ob: RJSC 252300Z 30003KT 260V340 9999 FEW020 SCT040 25/22 Q1012
cycle: 23

Station Type Date Time Source
RJSC TAF UTC NOAA

Error!

Example: see airport list